Ocean Exporter — VRXJ4 — position and weather

sailwx.info

Track history (hours):
 
Tides and Currents Weather Stations Pressure Air Temp Water Temp Dewpoint Dewpoint Depression Visibility Wind Speed Wind Dir Waves Ship Positions

Ocean Exporter

Last reported at 2016-Jun-18 12:32 UTC. Time now 2016-Jun-29 16:31 UTC.
Position S 24°11' W 046°13'.
Warning: this ship's position is 11 days out of date.

Length 169 m; draft 9.9 m.

Type: Cargo ship. MMSI: 477980000.

Date/timePositionNaut miles runAvg speedWind from/ knotsBaromVisibWave heightAir tempDewpointWater temp
2016-Jun-18 12:32S 24°11' W 046°13'1010.1
2016-Jun-18 11:33S 24°05' W 046°22'8 7.4
2016-Jun-18 10:30S 23°58' W 046°18'  
2016-Jun-11 02:19S 23°54' W 046°23'5 6.2
2016-Jun-11 01:33S 23°57' W 046°18'6 5.8
2016-Jun-11 00:33S 24°02' W 046°21'6 5.6
2016-Jun-10 23:33S 24°08' W 046°22'2 0.8
2016-Jun-10 21:22S 24°08' W 046°20'0 0.0
2016-Jun-10 19:28S 24°08' W 046°20'0 0.0
2016-Jun-10 18:16S 24°08' W 046°20'0 0.0
2016-Jun-10 17:34S 24°08' W 046°20'0 0.0
2016-Jun-10 16:09S 24°08' W 046°20'0 0.0
2016-Jun-10 15:33S 24°08' W 046°20'0 0.0
2016-Jun-10 14:27S 24°08' W 046°20'0 0.0
2016-Jun-10 13:27S 24°08' W 046°20'0 0.0
2016-Jun-10 12:33S 24°08' W 046°20'0 0.0
2016-Jun-10 11:15S 24°08' W 046°20'0 0.0
2016-Jun-10 10:27S 24°08' W 046°20'0 0.0
2016-Jun-10 09:21S 24°08' W 046°20'0 0.0
2016-Jun-10 08:27S 24°08' W 046°20'0 0.0
2016-Jun-10 07:33S 24°08' W 046°20'0 0.0
2016-Jun-10 06:33S 24°08' W 046°20'0 0.0
2016-Jun-10 04:27S 24°08' W 046°20'0 0.0
2016-Jun-10 03:18S 24°08' W 046°20'0 0.0
2016-Jun-10 02:33S 24°08' W 046°20'0 0.0
2016-Jun-10 01:33S 24°08' W 046°20'0 0.0
2016-Jun-10 00:27S 24°08' W 046°20'0 0.0
2016-Jun-09 23:30S 24°08' W 046°20'0 0.0
2016-Jun-09 22:27S 24°08' W 046°20'0 0.0
2016-Jun-09 21:33S 24°08' W 046°20'0 0.0
2016-Jun-09 20:33S 24°08' W 046°20'0 0.0
2016-Jun-09 19:33S 24°08' W 046°20'0 0.0
2016-Jun-09 17:33S 24°08' W 046°20'0 0.0
2016-Jun-09 15:27S 24°08' W 046°20'0 0.0
2016-Jun-09 14:09S 24°08' W 046°20'0 0.0
2016-Jun-09 12:15S 24°08' W 046°20'0 0.0
2016-Jun-09 11:21S 24°08' W 046°20'0 0.0
2016-Jun-09 10:33S 24°08' W 046°20'0 0.0
2016-Jun-09 09:08S 24°08' W 046°20'0 0.0
2016-Jun-09 08:32S 24°08' W 046°20'0 0.0
2016-Jun-09 07:26S 24°08' W 046°20'0 0.0
2016-Jun-09 06:32S 24°08' W 046°20'0 0.0
2016-Jun-09 05:32S 24°08' W 046°20'0 0.0
2016-Jun-09 04:08S 24°08' W 046°20'0 0.0
2016-Jun-09 03:11S 24°08' W 046°20'0 0.0
2016-Jun-09 02:32S 24°08' W 046°20'0 0.0
2016-Jun-09 01:32S 24°08' W 046°20'0 0.0
2016-Jun-09 00:32S 24°08' W 046°20'0 0.0
2016-Jun-08 23:14S 24°08' W 046°20'0 0.0
2016-Jun-08 22:32S 24°08' W 046°20'0 0.0
2016-Jun-08 21:26S 24°08' W 046°20'0 0.0
2016-Jun-08 20:17S 24°08' W 046°20'0 0.0
2016-Jun-08 18:20S 24°08' W 046°20'0 0.0
2016-Jun-08 17:29S 24°08' W 046°20'0 0.0
2016-Jun-08 16:32S 24°08' W 046°20'0 0.0
2016-Jun-08 15:26S 24°08' W 046°20'0 0.0
2016-Jun-08 14:32S 24°08' W 046°20'0 0.0
2016-Jun-08 13:32S 24°08' W 046°20'  
Track history (hours):
 
Tides and Currents Weather Stations Pressure Air Temp Water Temp Dewpoint Dewpoint Depression Visibility Wind Speed Wind Dir Waves Ship Positions

Ocean Exporter

Last reported at 2016-Jun-18 12:32 UTC. Time now 2016-Jun-29 16:31 UTC.
Position S 24°11' W 046°13'.
Warning: this ship's position is 11 days out of date.

Length 169 m; draft 9.9 m.

Type: Cargo ship. MMSI: 477980000.

Date/timePositionNaut miles runAvg speedWind from/ knotsBaromVisibWave heightAir tempDewpointWater temp
2016-Jun-18 12:32S 24°11' W 046°13'1010.1
2016-Jun-18 11:33S 24°05' W 046°22'8 7.4
2016-Jun-18 10:30S 23°58' W 046°18'  
2016-Jun-11 02:19S 23°54' W 046°23'5 6.2
2016-Jun-11 01:33S 23°57' W 046°18'6 5.8
2016-Jun-11 00:33S 24°02' W 046°21'6 5.6
2016-Jun-10 23:33S 24°08' W 046°22'2 0.8
2016-Jun-10 21:22S 24°08' W 046°20'0 0.0
2016-Jun-10 19:28S 24°08' W 046°20'0 0.0
2016-Jun-10 18:16S 24°08' W 046°20'0 0.0
2016-Jun-10 17:34S 24°08' W 046°20'0 0.0
2016-Jun-10 16:09S 24°08' W 046°20'0 0.0
2016-Jun-10 15:33S 24°08' W 046°20'0 0.0
2016-Jun-10 14:27S 24°08' W 046°20'0 0.0
2016-Jun-10 13:27S 24°08' W 046°20'0 0.0
2016-Jun-10 12:33S 24°08' W 046°20'0 0.0
2016-Jun-10 11:15S 24°08' W 046°20'0 0.0
2016-Jun-10 10:27S 24°08' W 046°20'0 0.0
2016-Jun-10 09:21S 24°08' W 046°20'0 0.0
2016-Jun-10 08:27S 24°08' W 046°20'0 0.0
2016-Jun-10 07:33S 24°08' W 046°20'0 0.0
2016-Jun-10 06:33S 24°08' W 046°20'0 0.0
2016-Jun-10 04:27S 24°08' W 046°20'0 0.0
2016-Jun-10 03:18S 24°08' W 046°20'0 0.0
2016-Jun-10 02:33S 24°08' W 046°20'0 0.0
2016-Jun-10 01:33S 24°08' W 046°20'0 0.0
2016-Jun-10 00:27S 24°08' W 046°20'0 0.0
2016-Jun-09 23:30S 24°08' W 046°20'0 0.0
2016-Jun-09 22:27S 24°08' W 046°20'0 0.0
2016-Jun-09 21:33S 24°08' W 046°20'0 0.0
2016-Jun-09 20:33S 24°08' W 046°20'0 0.0
2016-Jun-09 19:33S 24°08' W 046°20'0 0.0
2016-Jun-09 17:33S 24°08' W 046°20'0 0.0
2016-Jun-09 15:27S 24°08' W 046°20'0 0.0
2016-Jun-09 14:09S 24°08' W 046°20'0 0.0
2016-Jun-09 12:15S 24°08' W 046°20'0 0.0
2016-Jun-09 11:21S 24°08' W 046°20'0 0.0
2016-Jun-09 10:33S 24°08' W 046°20'0 0.0
2016-Jun-09 09:08S 24°08' W 046°20'0 0.0
2016-Jun-09 08:32S 24°08' W 046°20'0 0.0
2016-Jun-09 07:26S 24°08' W 046°20'0 0.0
2016-Jun-09 06:32S 24°08' W 046°20'0 0.0
2016-Jun-09 05:32S 24°08' W 046°20'0 0.0
2016-Jun-09 04:08S 24°08' W 046°20'0 0.0
2016-Jun-09 03:11S 24°08' W 046°20'0 0.0
2016-Jun-09 02:32S 24°08' W 046°20'0 0.0
2016-Jun-09 01:32S 24°08' W 046°20'0 0.0
2016-Jun-09 00:32S 24°08' W 046°20'0 0.0
2016-Jun-08 23:14S 24°08' W 046°20'0 0.0
2016-Jun-08 22:32S 24°08' W 046°20'0 0.0
2016-Jun-08 21:26S 24°08' W 046°20'0 0.0
2016-Jun-08 20:17S 24°08' W 046°20'0 0.0
2016-Jun-08 18:20S 24°08' W 046°20'0 0.0
2016-Jun-08 17:29S 24°08' W 046°20'0 0.0
2016-Jun-08 16:32S 24°08' W 046°20'0 0.0
2016-Jun-08 15:26S 24°08' W 046°20'0 0.0
2016-Jun-08 14:32S 24°08' W 046°20'0 0.0
2016-Jun-08 13:32S 24°08' W 046°20'  

Dump ship's entire track history